Karlovy Vary, Czech Republic

7:15 AM CEST on October 22, 2014 (GMT +0200)
IKARLOVA12 | Change Station
CLOSE
Current Station
Personal Weather Station
Location: Hroznetin, Karlovarsky kraj
Elevation: 1476 ft
Nearby Weather Stations

Elev 1476 ft 50.31 °N, 12.87 °E | Updated 4 minutes ago

Light Drizzle
Light Drizzle
42.7 °F
Feels Like 40 °F
N
5.0
Wind Variable Wind from WSW
Gusts 12.0 mph

Today
High -- | Low -- °F
--% Chance of Precip.
Yesterday
High -- | Low -- °F
Precip. -- in
7:41 AM 6:03 PM
Waning Crescent, 3% visible
Pressure 29.74 in
Visibility 3.7 miles
Clouds Mostly Cloudy 1000 ft
Overcast 1400 ft
Windchill 40 °F
Dew Point 40 °F
Humidity 90%
Rainfall 0.31 in
Snow Depth Not available.
UV 0 out of 12
Pollen Not available.
Air Quality Not available.
Flu Activity Not available.
METAR EDQM 220450Z 25014KT 6000 -DZ BKN010 OVC014 04/02 Q1007

More Conditions Fewer Conditions

Pressure 29.74 in
Visibility 3.7 miles
Clouds Mostly Cloudy 1000 ft
Overcast 1400 ft
Windchill 40 °F
Dew Point 40 °F
Humidity 90%
Rainfall 0.31 in
Snow Depth Not available.
UV 0 out of 12
Pollen Not available.
Air Quality Not available.
Flu Activity Not available.
METAR EDQM 220450Z 25014KT 6000 -DZ BKN010 OVC014 04/02 Q1007

More Conditions Fewer Conditions

10-Day Weather Forecast

Almanac

Astronomy

Oct. 22, 2014 Rise Set
Actual Time 7:41 AM CEST 6:03 PM CEST
Civil Twilight 7:08 AM CEST 6:36 PM CEST
Nautical Twilight 6:30 AM CEST 7:14 PM CEST
Astronomical Twilight 5:52 AM CEST 7:51 PM CEST
Moon 5:57 AM CEST 5:27 PM CEST
Length of Visible Light 11h 28m
Length of Day
10h 21m
Tomorrow will be 3m 35s shorter.
Waning Crescent, 3% of the Moon is Illuminated
Today
Waning Crescent
Oct 23
New
Oct 30
First Quarter
Nov 6
Full
Nov 14
Last Quarter

Yesterday's Extremes

Country Highs Country Lows

Community

WunderPhotos

Upload Photos

1,763,884 photos uploaded!

Nearby

Snow Depth

Not available.

Earthquake Activity

City Distance Mag. Time & Date
No recent earthquake activity has been reported nearby.
Minimum magnitude displayed is 2.5.

Coastal Water Temperatures

Place Temperature
No Stations Reporting

Nearby Weather Stations